createdAt,value
2019-02-24T00:00:47.029Z,103560.41
2019-02-24T00:03:12.779Z,103556.97
2019-02-24T00:05:38.547Z,103556.56
2019-02-24T00:08:04.301Z,103571.92
2019-02-24T00:10:30.067Z,103559.79
2019-02-24T00:12:55.823Z,103561.71
2019-02-24T00:15:21.590Z,103555.18
2019-02-24T00:17:47.599Z,103552.72
2019-02-24T00:20:13.349Z,103544.86
2019-02-24T00:22:39.116Z,103548.51
2019-02-24T00:25:04.864Z,103548.77
2019-02-24T00:27:30.625Z,103552.94
2019-02-24T00:29:56.370Z,103550.62
2019-02-24T00:32:22.130Z,103547.96
2019-02-24T00:34:47.872Z,103550.09
2019-02-24T00:37:13.637Z,103542.94
2019-02-24T00:39:39.387Z,103546.92
2019-02-24T00:42:05.159Z,103541.61
2019-02-24T00:44:30.912Z,103538.80
2019-02-24T00:46:56.673Z,103539.88
2019-02-24T00:49:22.423Z,103535.67
2019-02-24T00:51:48.187Z,103539.77
2019-02-24T00:54:13.934Z,103542.95
2019-02-24T00:56:39.728Z,103533.42
2019-02-24T00:59:05.473Z,103541.58
2019-02-24T01:01:31.238Z,103531.28
2019-02-24T01:03:57.002Z,103522.80
2019-02-24T01:06:22.762Z,103526.38
2019-02-24T01:08:48.530Z,103526.38
2019-02-24T01:11:14.266Z,103528.23
2019-02-24T01:13:40.041Z,103524.83
2019-02-24T01:16:05.784Z,103530.03
2019-02-24T01:18:31.544Z,103528.56
2019-02-24T01:20:57.297Z,103528.05
2019-02-24T01:23:23.056Z,103533.94
2019-02-24T01:25:48.802Z,103527.78
2019-02-24T01:28:14.566Z,103535.27
2019-02-24T01:30:40.321Z,103539.84
2019-02-24T01:33:06.085Z,103557.20
2019-02-24T01:35:31.822Z,103557.86
2019-02-24T01:37:57.586Z,103548.06
2019-02-24T01:40:23.340Z,103550.98
2019-02-24T01:42:49.099Z,103541.28
2019-02-24T01:45:14.845Z,103542.85
2019-02-24T01:47:40.628Z,103544.25
2019-02-24T01:50:07.375Z,103544.70
2019-02-24T01:52:33.117Z,103546.02
2019-02-24T01:54:58.878Z,103540.61
2019-02-24T01:57:24.626Z,103534.38
2019-02-24T01:59:50.392Z,103532.13
2019-02-24T02:02:16.151Z,103532.75
2019-02-24T02:04:41.909Z,103532.64
2019-02-24T02:07:07.661Z,103527.62
2019-02-24T02:09:33.429Z,103519.36
2019-02-24T02:11:59.178Z,103507.99
2019-02-24T02:14:24.944Z,103521.44
2019-02-24T02:16:50.695Z,103529.98
2019-02-24T02:19:16.460Z,103526.28
2019-02-24T02:21:42.215Z,103530.44
2019-02-24T02:24:07.977Z,103524.48
2019-02-24T02:26:33.722Z,103519.99
2019-02-24T02:28:59.493Z,103515.70
2019-02-24T02:31:25.238Z,103517.20
2019-02-24T02:33:51.033Z,103507.58
2019-02-24T02:36:16.779Z,103508.67
2019-02-24T02:38:42.539Z,103496.62
2019-02-24T02:41:08.292Z,103486.81
2019-02-24T02:43:34.563Z,103480.99
2019-02-24T02:46:00.588Z,103473.44
2019-02-24T02:48:26.505Z,103473.47
2019-02-24T02:50:52.267Z,103478.00
2019-02-24T02:53:18.301Z,103470.66
2019-02-24T02:55:44.040Z,103468.34
2019-02-24T02:58:09.790Z,103473.20
2019-02-24T03:00:35.712Z,103471.36
2019-02-24T03:03:01.464Z,103460.79
2019-02-24T03:05:27.465Z,103461.90
2019-02-24T03:08:06.904Z,103462.71
2019-02-24T03:10:33.178Z,103460.58
2019-02-24T03:12:58.924Z,103454.30
2019-02-24T03:15:24.698Z,103456.58
2019-02-24T03:17:50.449Z,103456.87
2019-02-24T03:20:16.947Z,103462.12
2019-02-24T03:22:42.688Z,103455.95
2019-02-24T03:25:08.470Z,103457.63
2019-02-24T03:27:34.207Z,103449.14
2019-02-24T03:30:00.240Z,103436.80
2019-02-24T03:32:26.370Z,103436.17
2019-02-24T03:34:52.131Z,103445.57
2019-02-24T03:37:17.900Z,103449.25
2019-02-24T03:39:43.648Z,103443.50
2019-02-24T03:42:09.407Z,103447.77
2019-02-24T03:44:36.087Z,103449.42
2019-02-24T03:47:02.880Z,103444.25
2019-02-24T03:49:28.582Z,103447.31
2019-02-24T03:51:54.512Z,103447.88
2019-02-24T03:54:20.260Z,103454.44
2019-02-24T03:56:46.015Z,103450.02
2019-02-24T03:59:15.142Z,103437.78
2019-02-24T04:01:39.443Z,103425.54
2019-02-24T04:04:05.180Z,103417.55
2019-02-24T04:06:30.947Z,103415.41
2019-02-24T04:08:56.718Z,103416.89
2019-02-24T04:11:22.483Z,103414.45
2019-02-24T04:13:48.234Z,103411.58
2019-02-24T04:16:14.000Z,103413.83
2019-02-24T04:18:39.751Z,103419.36
2019-02-24T04:21:05.498Z,103427.10
2019-02-24T04:23:31.273Z,103420.09
2019-02-24T04:25:57.015Z,103420.69
2019-02-24T04:28:22.782Z,103418.92
2019-02-24T04:30:48.526Z,103421.61
2019-02-24T04:33:14.286Z,103426.18
2019-02-24T04:35:40.027Z,103439.86
2019-02-24T04:38:05.785Z,103450.17
2019-02-24T04:40:31.527Z,103459.02
2019-02-24T04:42:57.283Z,103454.05
2019-02-24T04:45:23.029Z,103447.41
2019-02-24T04:47:48.788Z,103440.44
2019-02-24T04:50:14.534Z,103431.44
2019-02-24T04:52:40.299Z,103423.03
2019-02-24T04:55:06.055Z,103418.05
2019-02-24T04:57:31.821Z,103418.05
2019-02-24T04:59:57.571Z,103413.67
2019-02-24T05:02:23.351Z,103405.71
2019-02-24T05:04:49.097Z,103399.01
2019-02-24T05:07:14.864Z,103395.14
2019-02-24T05:09:40.607Z,103391.09
2019-02-24T05:12:06.361Z,103388.13
2019-02-24T05:14:32.110Z,103387.64
2019-02-24T05:16:57.866Z,103403.58
2019-02-24T05:19:23.624Z,103412.05
2019-02-24T05:21:49.376Z,103405.61
2019-02-24T05:24:15.138Z,103399.45
2019-02-24T05:26:40.889Z,103402.33
2019-02-24T05:29:06.655Z,103391.16
2019-02-24T05:31:32.401Z,103389.43
2019-02-24T05:33:58.170Z,103384.12
2019-02-24T05:36:23.936Z,103376.16
2019-02-24T05:38:49.700Z,103374.42
2019-02-24T05:41:15.443Z,103384.64
2019-02-24T05:43:41.202Z,103386.48
2019-02-24T05:46:06.945Z,103392.20
2019-02-24T05:48:33.690Z,103395.73
2019-02-24T05:50:59.545Z,103393.30
2019-02-24T05:53:25.311Z,103396.31
2019-02-24T05:55:51.095Z,103399.48
2019-02-24T05:58:16.833Z,103388.39
2019-02-24T06:00:42.599Z,103400.63
2019-02-24T06:03:08.344Z,103400.63
2019-02-24T06:05:34.115Z,103407.56
2019-02-24T06:07:59.863Z,103412.80
2019-02-24T06:10:25.630Z,103417.25
2019-02-24T06:12:51.377Z,103425.70
2019-02-24T06:15:17.144Z,103437.76
2019-02-24T06:17:42.891Z,103451.95
2019-02-24T06:20:08.647Z,103455.45
2019-02-24T06:22:34.396Z,103449.81
2019-02-24T06:25:00.210Z,103454.97
2019-02-24T06:27:26.018Z,103456.56
2019-02-24T06:29:51.785Z,103452.80
2019-02-24T06:32:17.525Z,103469.57
2019-02-24T06:34:43.283Z,103480.23
2019-02-24T06:37:09.024Z,103484.40
2019-02-24T06:39:34.783Z,103483.40
2019-02-24T06:42:00.527Z,103488.19
2019-02-24T06:44:26.292Z,103499.47
2019-02-24T06:46:52.044Z,103495.34
2019-02-24T06:49:17.823Z,103494.79
2019-02-24T06:51:43.567Z,103491.33
2019-02-24T06:54:09.309Z,103501.20
2019-02-24T06:56:35.064Z,103496.62
2019-02-24T06:59:00.810Z,103494.88
2019-02-24T07:01:26.584Z,103504.14
2019-02-24T07:03:52.328Z,103498.86
2019-02-24T07:06:18.100Z,103495.70
2019-02-24T07:08:43.842Z,103491.50
2019-02-24T07:11:09.606Z,103479.04
2019-02-24T07:13:35.354Z,103491.63
2019-02-24T07:16:01.125Z,103488.59
2019-02-24T07:18:26.870Z,103491.93
2019-02-24T07:20:52.626Z,103483.15
2019-02-24T07:23:18.391Z,103475.48
2019-02-24T07:25:44.153Z,103478.80
2019-02-24T07:28:09.897Z,103477.37
2019-02-24T07:30:35.657Z,103474.91
2019-02-24T07:33:01.402Z,103475.33
2019-02-24T07:35:27.141Z,103480.45
2019-02-24T07:37:52.906Z,103480.94
2019-02-24T07:40:18.652Z,103473.57
2019-02-24T07:42:44.404Z,103467.65
2019-02-24T07:45:10.161Z,103461.41
2019-02-24T07:47:35.926Z,103450.73
2019-02-24T07:50:01.763Z,103460.47
2019-02-24T07:52:27.529Z,103453.03
2019-02-24T07:54:53.274Z,103455.38
2019-02-24T07:57:19.027Z,103451.11
2019-02-24T07:59:44.788Z,103457.03
2019-02-24T08:02:10.560Z,103460.73
2019-02-24T08:04:36.312Z,103467.53
2019-02-24T08:07:02.082Z,103479.44
2019-02-24T08:09:27.826Z,103478.81
2019-02-24T08:11:53.584Z,103475.29
2019-02-24T08:14:19.339Z,103470.91
2019-02-24T08:16:45.105Z,103457.02
2019-02-24T08:19:10.848Z,103453.17
2019-02-24T08:21:36.614Z,103453.85
2019-02-24T08:24:02.366Z,103455.78
2019-02-24T08:26:28.124Z,103472.95
2019-02-24T08:28:53.882Z,103478.58
2019-02-24T08:31:19.676Z,103494.90
2019-02-24T08:33:45.424Z,103498.36
2019-02-24T08:36:11.164Z,103500.97
2019-02-24T08:38:36.923Z,103484.11
2019-02-24T08:41:02.690Z,103475.72
2019-02-24T08:43:28.456Z,103483.27
2019-02-24T08:45:54.209Z,103478.41
2019-02-24T08:48:19.997Z,103471.42
2019-02-24T08:50:45.738Z,103470.80
2019-02-24T08:53:11.496Z,103470.14
2019-02-24T08:55:37.245Z,103462.50
2019-02-24T08:58:02.996Z,103467.97
2019-02-24T09:00:28.746Z,103469.55
2019-02-24T09:02:54.525Z,103469.66
2019-02-24T09:05:20.280Z,103487.63
2019-02-24T09:07:46.039Z,103478.46
2019-02-24T09:10:11.784Z,103489.66
2019-02-24T09:12:37.536Z,103489.66
2019-02-24T09:15:09.288Z,103483.53
2019-02-24T09:17:35.048Z,103493.67
2019-02-24T09:20:00.807Z,103505.13
2019-02-24T09:22:26.560Z,103493.47
2019-02-24T09:24:52.299Z,103486.20
2019-02-24T09:27:18.058Z,103500.16
2019-02-24T09:29:43.805Z,103485.92
2019-02-24T09:32:09.592Z,103487.47
2019-02-24T09:34:35.339Z,103490.81
2019-02-24T09:37:01.086Z,103483.36
2019-02-24T09:39:26.844Z,103475.02
2019-02-24T09:41:52.621Z,103478.07
2019-02-24T09:44:18.379Z,103479.22
2019-02-24T09:46:44.124Z,103476.84
2019-02-24T09:49:09.881Z,103478.61
2019-02-24T09:51:35.630Z,103482.95
2019-02-24T09:54:01.386Z,103472.45
2019-02-24T09:56:27.127Z,103481.97
2019-02-24T09:58:52.951Z,103489.67
2019-02-24T10:01:18.708Z,103480.11
2019-02-24T10:03:44.472Z,103476.42
2019-02-24T10:06:10.226Z,103474.79
2019-02-24T10:08:35.984Z,103476.55
2019-02-24T10:11:01.730Z,103468.46
2019-02-24T10:13:27.490Z,103471.49
2019-02-24T10:15:53.233Z,103476.05
2019-02-24T10:18:18.986Z,103473.49
2019-02-24T10:20:44.742Z,103474.10
2019-02-24T10:23:10.489Z,103479.26
2019-02-24T10:25:36.253Z,103477.14
2019-02-24T10:28:01.999Z,103484.94
2019-02-24T10:30:27.756Z,103483.16
2019-02-24T10:32:53.505Z,103480.34
2019-02-24T10:35:19.268Z,103489.10
2019-02-24T10:37:45.050Z,103496.52
2019-02-24T10:40:12.779Z,103498.36
2019-02-24T10:42:38.535Z,103503.28
2019-02-24T10:45:10.230Z,103503.28
2019-02-24T10:47:35.993Z,103511.23
2019-02-24T10:50:03.353Z,103511.23
2019-02-24T10:52:30.685Z,103505.10
2019-02-24T10:54:56.585Z,103507.88
2019-02-24T10:57:22.358Z,103507.88
2019-02-24T10:59:48.553Z,103512.20
2019-02-24T11:02:14.319Z,103511.67
2019-02-24T11:04:40.098Z,103495.47
2019-02-24T11:07:05.857Z,103494.77
2019-02-24T11:09:31.637Z,103486.31
2019-02-24T11:11:57.388Z,103482.04
2019-02-24T11:14:23.128Z,103481.77
2019-02-24T11:16:48.884Z,103475.40
2019-02-24T11:19:14.633Z,103486.80
2019-02-24T11:21:40.401Z,103482.71
2019-02-24T11:24:06.153Z,103483.18
2019-02-24T11:26:31.909Z,103477.14
2019-02-24T11:28:57.650Z,103465.45
2019-02-24T11:31:23.411Z,103463.37
2019-02-24T11:33:49.151Z,103466.73
2019-02-24T11:36:14.912Z,103458.42
2019-02-24T11:38:40.658Z,103465.18
2019-02-24T11:41:06.417Z,103449.80
2019-02-24T11:43:32.168Z,103450.28
2019-02-24T11:45:57.932Z,103450.55
2019-02-24T11:48:23.676Z,103453.20
2019-02-24T11:50:49.449Z,103456.05
2019-02-24T11:53:15.200Z,103447.96
2019-02-24T11:55:41.607Z,103449.09
2019-02-24T11:58:07.449Z,103441.59
2019-02-24T12:00:33.195Z,103426.20
2019-02-24T12:02:59.031Z,103431.47
2019-02-24T12:05:24.778Z,103426.87
2019-02-24T12:07:50.554Z,103423.45
2019-02-24T12:10:16.294Z,103433.84
2019-02-24T12:12:42.053Z,103432.75
2019-02-24T12:15:10.208Z,103437.77
2019-02-24T12:17:35.979Z,103414.66
2019-02-24T12:20:01.832Z,103414.66
2019-02-24T12:22:27.583Z,103428.17
2019-02-24T12:24:53.331Z,103429.78
2019-02-24T12:27:19.089Z,103429.33
2019-02-24T12:29:44.841Z,103425.20
2019-02-24T12:32:10.624Z,103425.69
2019-02-24T12:34:36.393Z,103428.55
2019-02-24T12:37:02.153Z,103432.36
2019-02-24T12:39:27.900Z,103430.07
2019-02-24T12:41:53.664Z,103427.03
2019-02-24T12:44:19.412Z,103420.13
2019-02-24T12:46:45.168Z,103412.70
2019-02-24T12:49:10.912Z,103411.56
2019-02-24T12:51:36.657Z,103409.34
2019-02-24T12:54:02.417Z,103413.30
2019-02-24T12:56:28.166Z,103419.72
2019-02-24T12:58:53.925Z,103417.66
2019-02-24T13:01:19.671Z,103415.91
2019-02-24T13:03:45.443Z,103416.47
2019-02-24T13:06:11.194Z,103421.82
2019-02-24T13:08:36.961Z,103411.80
2019-02-24T13:11:02.803Z,103410.59
2019-02-24T13:13:28.561Z,103410.81
2019-02-24T13:15:54.307Z,103410.02
2019-02-24T13:18:20.065Z,103407.11
2019-02-24T13:20:45.813Z,103404.29
2019-02-24T13:23:11.571Z,103408.58
2019-02-24T13:25:37.320Z,103407.52
2019-02-24T13:28:03.082Z,103407.81
2019-02-24T13:30:28.820Z,103407.78
2019-02-24T13:32:54.581Z,103415.73
2019-02-24T13:35:20.338Z,103413.17
2019-02-24T13:37:46.130Z,103403.78
2019-02-24T13:40:15.298Z,103406.92
2019-02-24T13:42:41.043Z,103401.02
2019-02-24T13:45:10.102Z,103399.08
2019-02-24T13:47:35.846Z,103402.93
2019-02-24T13:50:01.909Z,103400.84
2019-02-24T13:52:27.659Z,103402.31
2019-02-24T13:54:53.417Z,103410.03
2019-02-24T13:57:19.163Z,103414.73
2019-02-24T13:59:44.924Z,103411.45
2019-02-24T14:02:10.685Z,103415.06
2019-02-24T14:04:36.439Z,103411.28
2019-02-24T14:07:02.187Z,103411.92
2019-02-24T14:09:27.944Z,103409.41
2019-02-24T14:11:53.684Z,103408.89
2019-02-24T14:14:19.460Z,103405.67
2019-02-24T14:16:45.216Z,103396.07
2019-02-24T14:19:10.974Z,103391.41
2019-02-24T14:21:36.715Z,103395.23
2019-02-24T14:24:02.498Z,103394.48
2019-02-24T14:26:28.243Z,103402.76
2019-02-24T14:28:53.998Z,103408.53
2019-02-24T14:31:19.776Z,103404.59
2019-02-24T14:33:45.522Z,103401.89
2019-02-24T14:36:11.284Z,103397.00
2019-02-24T14:38:37.031Z,103400.07
2019-02-24T14:41:02.795Z,103407.25
2019-02-24T14:43:28.541Z,103399.83
2019-02-24T14:45:54.295Z,103399.86
2019-02-24T14:48:20.050Z,103395.12
2019-02-24T14:50:45.797Z,103390.52
2019-02-24T14:53:11.541Z,103397.88
2019-02-24T14:55:37.309Z,103395.73
2019-02-24T14:58:03.055Z,103403.73
2019-02-24T15:00:28.811Z,103413.94
2019-02-24T15:02:54.582Z,103405.02
2019-02-24T15:05:20.375Z,103408.36
2019-02-24T15:07:46.082Z,103415.13
2019-02-24T15:10:19.837Z,103406.52
2019-02-24T15:12:45.595Z,103399.31
2019-02-24T15:15:16.295Z,103399.31
2019-02-24T15:17:42.055Z,103392.19
2019-02-24T15:20:10.811Z,103398.40
2019-02-24T15:22:36.565Z,103394.18
2019-02-24T15:25:04.727Z,103395.41
2019-02-24T15:27:30.485Z,103395.81
2019-02-24T15:29:56.231Z,103393.89
2019-02-24T15:32:21.988Z,103394.97
2019-02-24T15:34:47.728Z,103398.26
2019-02-24T15:37:13.496Z,103402.23
2019-02-24T15:39:39.239Z,103407.78
2019-02-24T15:42:04.994Z,103404.80
2019-02-24T15:44:30.743Z,103408.50
2019-02-24T15:46:56.503Z,103404.52
2019-02-24T15:49:22.258Z,103405.63
2019-02-24T15:51:48.013Z,103400.98
2019-02-24T15:54:13.756Z,103401.73
2019-02-24T15:56:39.518Z,103414.02
2019-02-24T15:59:05.272Z,103414.75
2019-02-24T16:01:31.036Z,103412.25
2019-02-24T16:03:56.805Z,103414.17
2019-02-24T16:06:22.565Z,103412.80
2019-02-24T16:08:48.311Z,103415.50
2019-02-24T16:11:14.069Z,103414.83
2019-02-24T16:13:39.845Z,103416.91
2019-02-24T16:16:05.568Z,103417.24
2019-02-24T16:18:31.314Z,103406.88
2019-02-24T16:20:57.055Z,103410.28
2019-02-24T16:23:22.815Z,103419.59
2019-02-24T16:25:48.556Z,103423.64
2019-02-24T16:28:14.314Z,103427.77
2019-02-24T16:30:40.064Z,103436.53
2019-02-24T16:33:10.640Z,103440.28
2019-02-24T16:35:33.474Z,103433.53
2019-02-24T16:37:59.237Z,103427.10
2019-02-24T16:40:26.681Z,103425.16
2019-02-24T16:42:52.448Z,103426.12
2019-02-24T16:45:18.197Z,103433.62
2019-02-24T16:47:44.056Z,103433.29
2019-02-24T16:50:13.596Z,103430.14
2019-02-24T16:52:39.369Z,103420.14
2019-02-24T16:55:08.020Z,103420.14
2019-02-24T16:57:33.776Z,103439.55
2019-02-24T16:59:59.525Z,103439.30
2019-02-24T17:02:25.293Z,103451.05
2019-02-24T17:04:51.036Z,103454.68
2019-02-24T17:07:16.842Z,103462.00
2019-02-24T17:09:42.589Z,103459.81
2019-02-24T17:12:08.339Z,103459.44
2019-02-24T17:14:34.100Z,103456.00
2019-02-24T17:17:01.783Z,103448.89
2019-02-24T17:19:27.520Z,103450.57
2019-02-24T17:21:53.273Z,103450.57
2019-02-24T17:24:19.030Z,103463.13
2019-02-24T17:26:44.772Z,103465.55
2019-02-24T17:29:10.535Z,103465.61
2019-02-24T17:31:36.279Z,103464.23
2019-02-24T17:34:02.036Z,103467.02
2019-02-24T17:36:27.784Z,103471.34
2019-02-24T17:38:53.539Z,103477.83
2019-02-24T17:41:19.284Z,103475.25
2019-02-24T17:43:45.062Z,103471.41
2019-02-24T17:46:10.808Z,103482.94
2019-02-24T17:48:36.720Z,103484.00
2019-02-24T17:51:02.474Z,103481.61
2019-02-24T17:53:28.235Z,103485.92
2019-02-24T17:55:53.985Z,103480.80
2019-02-24T17:58:19.731Z,103472.79
2019-02-24T18:00:50.018Z,103478.71
2019-02-24T18:03:15.791Z,103477.56
2019-02-24T18:05:41.552Z,103482.70
2019-02-24T18:08:07.295Z,103485.13
2019-02-24T18:10:33.053Z,103483.49
2019-02-24T18:12:58.795Z,103488.23
2019-02-24T18:15:24.553Z,103488.29
2019-02-24T18:17:50.296Z,103485.32
2019-02-24T18:20:17.571Z,103482.97
2019-02-24T18:22:43.326Z,103475.16
2019-02-24T18:25:10.286Z,103483.39
2019-02-24T18:27:36.033Z,103484.66
2019-02-24T18:30:02.894Z,103486.00
2019-02-24T18:32:28.645Z,103491.13
2019-02-24T18:34:54.398Z,103498.03
2019-02-24T18:37:20.146Z,103491.47
2019-02-24T18:39:47.003Z,103491.46
2019-02-24T18:42:12.710Z,103494.25
2019-02-24T18:44:38.504Z,103492.05
2019-02-24T18:47:04.320Z,103500.00
2019-02-24T18:49:30.061Z,103502.11
2019-02-24T18:51:55.823Z,103503.46
2019-02-24T18:54:21.582Z,103498.39
2019-02-24T18:56:47.362Z,103501.53
2019-02-24T18:59:13.152Z,103502.88
2019-02-24T19:01:38.998Z,103504.30
2019-02-24T19:04:04.765Z,103503.43
2019-02-24T19:06:38.756Z,103505.16
2019-02-24T19:08:58.192Z,103504.77
2019-02-24T19:11:23.971Z,103502.38
2019-02-24T19:13:49.719Z,103506.47
2019-02-24T19:16:15.477Z,103503.22
2019-02-24T19:18:41.231Z,103499.77
2019-02-24T19:21:06.990Z,103498.50
2019-02-24T19:23:32.742Z,103497.05
2019-02-24T19:25:58.528Z,103495.11
2019-02-24T19:28:24.279Z,103498.00
2019-02-24T19:30:50.042Z,103502.53
2019-02-24T19:33:15.797Z,103503.68
2019-02-24T19:35:41.545Z,103505.19
2019-02-24T19:38:07.311Z,103507.19
2019-02-24T19:40:33.053Z,103513.75
2019-02-24T19:42:58.822Z,103509.81
2019-02-24T19:45:24.671Z,103514.59
2019-02-24T19:47:50.443Z,103511.69
2019-02-24T19:50:16.479Z,103497.92
2019-02-24T19:52:42.255Z,103498.77
2019-02-24T19:55:09.599Z,103494.77
2019-02-24T19:57:35.390Z,103498.31
2019-02-24T20:00:01.233Z,103494.77
2019-02-24T20:02:26.995Z,103500.31
2019-02-24T20:04:52.953Z,103503.42
2019-02-24T20:07:18.722Z,103506.27
2019-02-24T20:09:44.474Z,103505.97
2019-02-24T20:12:10.240Z,103494.44
2019-02-24T20:14:35.995Z,103500.70
2019-02-24T20:17:01.751Z,103497.34
2019-02-24T20:19:27.504Z,103493.86
2019-02-24T20:21:53.274Z,103491.61
2019-02-24T20:24:19.030Z,103491.93
2019-02-24T20:26:44.810Z,103490.84
2019-02-24T20:29:10.557Z,103476.64
2019-02-24T20:31:36.310Z,103473.09
2019-02-24T20:34:02.067Z,103474.01
2019-02-24T20:36:27.812Z,103481.86
2019-02-24T20:38:53.568Z,103484.80
2019-02-24T20:41:19.325Z,103485.92
2019-02-24T20:43:45.103Z,103482.54
2019-02-24T20:46:10.860Z,103500.34
2019-02-24T20:48:36.631Z,103500.34
2019-02-24T20:51:02.375Z,103508.73
2019-02-24T20:53:28.225Z,103513.38
2019-02-24T20:55:53.940Z,103527.28
2019-02-24T20:58:19.687Z,103524.68
2019-02-24T21:00:48.242Z,103523.98
2019-02-24T21:03:14.068Z,103527.35
2019-02-24T21:05:39.869Z,103526.85
2019-02-24T21:08:05.630Z,103522.99
2019-02-24T21:10:31.411Z,103513.81
2019-02-24T21:12:57.204Z,103513.60
2019-02-24T21:15:23.035Z,103513.60
2019-02-24T21:17:48.794Z,103515.63
2019-02-24T21:20:28.292Z,103513.84
2019-02-24T21:22:54.056Z,103512.80
2019-02-24T21:25:19.827Z,103516.73
2019-02-24T21:27:45.683Z,103513.74
2019-02-24T21:30:15.618Z,103508.16
2019-02-24T21:32:41.467Z,103507.31
2019-02-24T21:35:08.491Z,103507.73
2019-02-24T21:37:34.239Z,103508.20
2019-02-24T21:40:00.000Z,103502.16
2019-02-24T21:42:25.746Z,103502.84
2019-02-24T21:44:51.512Z,103500.55
2019-02-24T21:47:17.268Z,103500.23
2019-02-24T21:49:43.071Z,103500.91
2019-02-24T21:52:08.820Z,103506.24
2019-02-24T21:54:34.587Z,103505.31
2019-02-24T21:57:00.340Z,103499.44
2019-02-24T21:59:26.141Z,103501.40
2019-02-24T22:01:51.879Z,103496.55
2019-02-24T22:04:17.653Z,103492.92
2019-02-24T22:06:43.397Z,103488.97
2019-02-24T22:09:09.680Z,103487.95
2019-02-24T22:11:35.409Z,103484.71
2019-02-24T22:14:01.212Z,103488.58
2019-02-24T22:16:26.961Z,103478.10
2019-02-24T22:19:00.713Z,103479.39
2019-02-24T22:21:26.799Z,103478.11
2019-02-24T22:27:00.311Z,103477.36
2019-02-24T22:29:26.204Z,103476.59
2019-02-24T22:31:52.014Z,103472.10
2019-02-24T22:34:17.966Z,103465.31
2019-02-24T22:36:43.730Z,103461.90
2019-02-24T22:39:09.477Z,103462.43
2019-02-24T22:41:35.460Z,103459.19
2019-02-24T22:44:01.373Z,103460.87
2019-02-24T22:46:27.356Z,103468.33
2019-02-24T22:48:53.104Z,103470.11
2019-02-24T22:51:19.192Z,103471.04
2019-02-24T22:53:45.046Z,103467.53
2019-02-24T22:56:10.818Z,103466.11
2019-02-24T22:58:36.567Z,103468.06
2019-02-24T23:04:16.482Z,103475.73
2019-02-24T23:06:42.240Z,103482.62
2019-02-24T23:09:49.665Z,103484.31
2019-02-24T23:12:15.528Z,103479.37
2019-02-24T23:15:22.991Z,103473.09
2019-02-24T23:17:48.731Z,103484.16
2019-02-24T23:20:14.485Z,103490.52
2019-02-24T23:22:40.253Z,103490.28
2019-02-24T23:25:06.131Z,103490.28
2019-02-24T23:27:31.869Z,103492.06
2019-02-24T23:29:57.627Z,103484.16
2019-02-24T23:32:23.380Z,103493.80
2019-02-24T23:34:49.133Z,103484.16
2019-02-24T23:37:14.916Z,103480.70
2019-02-24T23:39:40.665Z,103471.52
2019-02-24T23:42:06.433Z,103463.48
2019-02-24T23:47:19.483Z,103465.67
2019-02-24T23:49:45.241Z,103472.32
2019-02-24T23:52:11.001Z,103461.81
2019-02-24T23:54:36.749Z,103479.49
2019-02-24T23:57:02.523Z,103479.01
2019-02-24T23:59:28.270Z,103478.77
